sensor_id;sensor_type;location;lat;lon;timestamp;P1;durP1;ratioP1;P2;durP2;ratioP2
19782;SDS011;10051;40.294;-3.754;2024-03-02T00:00:49;7.85;;;2.08;;
19782;SDS011;10051;40.294;-3.754;2024-03-02T00:03:16;7.25;;;2.13;;
19782;SDS011;10051;40.294;-3.754;2024-03-02T00:05:42;11.35;;;2.28;;
19782;SDS011;10051;40.294;-3.754;2024-03-02T00:08:08;7.13;;;2.13;;
19782;SDS011;10051;40.294;-3.754;2024-03-02T00:10:38;6.65;;;2.25;;
19782;SDS011;10051;40.294;-3.754;2024-03-02T00:13:10;5.65;;;2.00;;
19782;SDS011;10051;40.294;-3.754;2024-03-02T00:18:11;5.93;;;2.20;;
19782;SDS011;10051;40.294;-3.754;2024-03-02T00:20:38;8.95;;;2.20;;
19782;SDS011;10051;40.294;-3.754;2024-03-02T00:23:04;6.50;;;2.42;;
19782;SDS011;10051;40.294;-3.754;2024-03-02T00:25:41;6.00;;;2.20;;
19782;SDS011;10051;40.294;-3.754;2024-03-02T00:28:50;6.20;;;2.55;;
19782;SDS011;10051;40.294;-3.754;2024-03-02T00:33:46;7.22;;;2.45;;
19782;SDS011;10051;40.294;-3.754;2024-03-02T00:36:18;8.68;;;2.35;;
19782;SDS011;10051;40.294;-3.754;2024-03-02T00:38:50;5.03;;;2.00;;
19782;SDS011;10051;40.294;-3.754;2024-03-02T00:41:24;6.53;;;2.20;;
19782;SDS011;10051;40.294;-3.754;2024-03-02T00:43:59;6.20;;;2.20;;
19782;SDS011;10051;40.294;-3.754;2024-03-02T00:46:27;7.63;;;2.10;;
19782;SDS011;10051;40.294;-3.754;2024-03-02T00:48:58;8.05;;;2.20;;
19782;SDS011;10051;40.294;-3.754;2024-03-02T00:51:32;6.70;;;2.15;;
19782;SDS011;10051;40.294;-3.754;2024-03-02T00:54:00;6.38;;;2.00;;
19782;SDS011;10051;40.294;-3.754;2024-03-02T00:56:30;5.97;;;2.30;;
19782;SDS011;10051;40.294;-3.754;2024-03-02T00:58:56;6.93;;;2.30;;
19782;SDS011;10051;40.294;-3.754;2024-03-02T01:01:22;11.18;;;2.28;;
19782;SDS011;10051;40.294;-3.754;2024-03-02T01:03:48;5.93;;;1.83;;
19782;SDS011;10051;40.294;-3.754;2024-03-02T01:06:14;10.50;;;2.28;;
19782;SDS011;10051;40.294;-3.754;2024-03-02T01:08:40;10.63;;;2.30;;
19782;SDS011;10051;40.294;-3.754;2024-03-02T01:11:06;9.23;;;2.25;;
19782;SDS011;10051;40.294;-3.754;2024-03-02T01:13:32;8.90;;;2.10;;
19782;SDS011;10051;40.294;-3.754;2024-03-02T01:15:58;7.95;;;2.20;;
19782;SDS011;10051;40.294;-3.754;2024-03-02T01:18:25;7.72;;;2.22;;
19782;SDS011;10051;40.294;-3.754;2024-03-02T01:20:51;7.57;;;2.30;;
19782;SDS011;10051;40.294;-3.754;2024-03-02T01:23:20;8.23;;;2.38;;
19782;SDS011;10051;40.294;-3.754;2024-03-02T01:25:46;7.20;;;2.30;;
19782;SDS011;10051;40.294;-3.754;2024-03-02T01:28:12;8.45;;;2.53;;
19782;SDS011;10051;40.294;-3.754;2024-03-02T01:30:39;8.52;;;2.42;;
19782;SDS011;10051;40.294;-3.754;2024-03-02T01:33:04;10.05;;;2.65;;
19782;SDS011;10051;40.294;-3.754;2024-03-02T01:35:30;5.45;;;2.08;;
19782;SDS011;10051;40.294;-3.754;2024-03-02T01:37:56;7.18;;;2.53;;
19782;SDS011;10051;40.294;-3.754;2024-03-02T01:40:22;5.20;;;2.30;;
19782;SDS011;10051;40.294;-3.754;2024-03-02T01:42:51;6.03;;;2.17;;
19782;SDS011;10051;40.294;-3.754;2024-03-02T01:45:18;8.32;;;2.65;;
19782;SDS011;10051;40.294;-3.754;2024-03-02T01:47:43;6.35;;;2.25;;
19782;SDS011;10051;40.294;-3.754;2024-03-02T01:50:10;7.57;;;2.38;;
19782;SDS011;10051;40.294;-3.754;2024-03-02T01:52:36;9.45;;;2.17;;
19782;SDS011;10051;40.294;-3.754;2024-03-02T01:55:03;8.48;;;2.38;;
19782;SDS011;10051;40.294;-3.754;2024-03-02T01:57:32;8.38;;;2.10;;
19782;SDS011;10051;40.294;-3.754;2024-03-02T01:59:59;8.68;;;2.47;;
19782;SDS011;10051;40.294;-3.754;2024-03-02T02:02:25;6.35;;;2.28;;
19782;SDS011;10051;40.294;-3.754;2024-03-02T02:04:51;5.88;;;2.30;;
19782;SDS011;10051;40.294;-3.754;2024-03-02T02:07:16;7.78;;;2.20;;
19782;SDS011;10051;40.294;-3.754;2024-03-02T02:09:42;7.45;;;2.40;;
19782;SDS011;10051;40.294;-3.754;2024-03-02T02:12:08;9.45;;;2.40;;
19782;SDS011;10051;40.294;-3.754;2024-03-02T02:14:34;5.97;;;2.40;;
19782;SDS011;10051;40.294;-3.754;2024-03-02T02:17:00;7.78;;;2.70;;
19782;SDS011;10051;40.294;-3.754;2024-03-02T02:19:25;8.57;;;2.58;;
19782;SDS011;10051;40.294;-3.754;2024-03-02T02:21:51;7.90;;;2.40;;
19782;SDS011;10051;40.294;-3.754;2024-03-02T02:24:16;6.18;;;2.00;;
19782;SDS011;10051;40.294;-3.754;2024-03-02T02:26:42;10.60;;;2.20;;
19782;SDS011;10051;40.294;-3.754;2024-03-02T02:29:07;7.97;;;2.47;;
19782;SDS011;10051;40.294;-3.754;2024-03-02T02:31:40;7.60;;;1.95;;
19782;SDS011;10051;40.294;-3.754;2024-03-02T02:34:06;6.28;;;2.25;;
19782;SDS011;10051;40.294;-3.754;2024-03-02T02:36:36;7.38;;;2.35;;
19782;SDS011;10051;40.294;-3.754;2024-03-02T02:39:03;7.75;;;2.25;;
19782;SDS011;10051;40.294;-3.754;2024-03-02T02:41:32;6.53;;;2.20;;
19782;SDS011;10051;40.294;-3.754;2024-03-02T02:43:57;5.45;;;2.08;;
19782;SDS011;10051;40.294;-3.754;2024-03-02T02:46:23;6.30;;;2.15;;
19782;SDS011;10051;40.294;-3.754;2024-03-02T02:48:48;8.32;;;2.45;;
19782;SDS011;10051;40.294;-3.754;2024-03-02T02:51:16;6.55;;;2.08;;
19782;SDS011;10051;40.294;-3.754;2024-03-02T02:53:42;8.32;;;2.15;;
19782;SDS011;10051;40.294;-3.754;2024-03-02T02:56:10;11.00;;;2.40;;
19782;SDS011;10051;40.294;-3.754;2024-03-02T02:58:36;8.10;;;2.30;;
19782;SDS011;10051;40.294;-3.754;2024-03-02T03:01:01;6.78;;;2.20;;
19782;SDS011;10051;40.294;-3.754;2024-03-02T03:03:27;10.68;;;2.53;;
19782;SDS011;10051;40.294;-3.754;2024-03-02T03:05:53;9.93;;;2.55;;
19782;SDS011;10051;40.294;-3.754;2024-03-02T03:08:18;9.77;;;2.58;;
19782;SDS011;10051;40.294;-3.754;2024-03-02T03:10:44;7.38;;;2.47;;
19782;SDS011;10051;40.294;-3.754;2024-03-02T03:13:10;7.28;;;2.67;;
19782;SDS011;10051;40.294;-3.754;2024-03-02T03:15:35;7.65;;;2.70;;
19782;SDS011;10051;40.294;-3.754;2024-03-02T03:18:02;9.35;;;2.50;;
19782;SDS011;10051;40.294;-3.754;2024-03-02T03:20:29;8.32;;;2.45;;
19782;SDS011;10051;40.294;-3.754;2024-03-02T03:22:54;10.73;;;2.60;;
19782;SDS011;10051;40.294;-3.754;2024-03-02T03:25:20;10.07;;;2.55;;
19782;SDS011;10051;40.294;-3.754;2024-03-02T03:27:46;8.70;;;2.58;;
19782;SDS011;10051;40.294;-3.754;2024-03-02T03:30:11;6.53;;;2.50;;
19782;SDS011;10051;40.294;-3.754;2024-03-02T03:32:37;6.15;;;2.30;;
19782;SDS011;10051;40.294;-3.754;2024-03-02T03:35:03;9.07;;;2.55;;
19782;SDS011;10051;40.294;-3.754;2024-03-02T03:37:29;12.80;;;2.65;;
19782;SDS011;10051;40.294;-3.754;2024-03-02T03:40:04;9.60;;;2.65;;
19782;SDS011;10051;40.294;-3.754;2024-03-02T03:42:40;9.68;;;2.60;;
19782;SDS011;10051;40.294;-3.754;2024-03-02T03:45:06;9.75;;;2.60;;
19782;SDS011;10051;40.294;-3.754;2024-03-02T03:47:32;10.82;;;2.63;;
19782;SDS011;10051;40.294;-3.754;2024-03-02T03:49:58;5.97;;;2.60;;
19782;SDS011;10051;40.294;-3.754;2024-03-02T03:52:23;8.35;;;2.58;;
19782;SDS011;10051;40.294;-3.754;2024-03-02T03:54:49;10.35;;;3.00;;
19782;SDS011;10051;40.294;-3.754;2024-03-02T03:57:15;10.25;;;2.80;;
19782;SDS011;10051;40.294;-3.754;2024-03-02T03:59:41;12.40;;;2.50;;
19782;SDS011;10051;40.294;-3.754;2024-03-02T04:02:08;10.23;;;2.50;;
19782;SDS011;10051;40.294;-3.754;2024-03-02T04:04:34;7.13;;;2.30;;
19782;SDS011;10051;40.294;-3.754;2024-03-02T04:07:00;8.15;;;2.40;;
19782;SDS011;10051;40.294;-3.754;2024-03-02T04:09:25;13.13;;;2.60;;
19782;SDS011;10051;40.294;-3.754;2024-03-02T04:11:51;9.40;;;2.72;;
19782;SDS011;10051;40.294;-3.754;2024-03-02T04:14:17;8.35;;;2.60;;
19782;SDS011;10051;40.294;-3.754;2024-03-02T04:16:42;9.40;;;2.42;;
19782;SDS011;10051;40.294;-3.754;2024-03-02T04:19:08;7.68;;;2.50;;
19782;SDS011;10051;40.294;-3.754;2024-03-02T04:21:33;6.40;;;2.15;;
19782;SDS011;10051;40.294;-3.754;2024-03-02T04:23:59;10.10;;;2.40;;
19782;SDS011;10051;40.294;-3.754;2024-03-02T04:26:25;9.70;;;2.20;;
19782;SDS011;10051;40.294;-3.754;2024-03-02T04:28:51;9.30;;;2.20;;
19782;SDS011;10051;40.294;-3.754;2024-03-02T04:31:18;7.00;;;2.15;;
19782;SDS011;10051;40.294;-3.754;2024-03-02T04:33:44;10.88;;;2.00;;
19782;SDS011;10051;40.294;-3.754;2024-03-02T04:36:10;11.35;;;2.22;;
19782;SDS011;10051;40.294;-3.754;2024-03-02T04:38:36;9.68;;;2.15;;
19782;SDS011;10051;40.294;-3.754;2024-03-02T04:41:03;7.75;;;2.03;;
19782;SDS011;10051;40.294;-3.754;2024-03-02T04:43:31;7.88;;;2.03;;
19782;SDS011;10051;40.294;-3.754;2024-03-02T04:46:00;7.28;;;2.08;;
19782;SDS011;10051;40.294;-3.754;2024-03-02T04:48:26;12.05;;;2.38;;
19782;SDS011;10051;40.294;-3.754;2024-03-02T04:50:52;10.07;;;1.92;;
19782;SDS011;10051;40.294;-3.754;2024-03-02T04:53:18;8.27;;;1.98;;
19782;SDS011;10051;40.294;-3.754;2024-03-02T04:55:43;5.88;;;1.80;;
19782;SDS011;10051;40.294;-3.754;2024-03-02T04:58:09;8.93;;;2.00;;
19782;SDS011;10051;40.294;-3.754;2024-03-02T05:00:35;7.30;;;1.88;;
19782;SDS011;10051;40.294;-3.754;2024-03-02T05:03:01;8.35;;;2.00;;
19782;SDS011;10051;40.294;-3.754;2024-03-02T05:05:27;10.52;;;2.20;;
19782;SDS011;10051;40.294;-3.754;2024-03-02T05:07:53;10.43;;;2.10;;
19782;SDS011;10051;40.294;-3.754;2024-03-02T05:10:18;8.60;;;1.77;;
19782;SDS011;10051;40.294;-3.754;2024-03-02T05:12:44;8.93;;;1.85;;
19782;SDS011;10051;40.294;-3.754;2024-03-02T05:15:10;11.95;;;2.05;;
19782;SDS011;10051;40.294;-3.754;2024-03-02T05:17:37;10.75;;;2.10;;
19782;SDS011;10051;40.294;-3.754;2024-03-02T05:20:03;11.65;;;2.15;;
19782;SDS011;10051;40.294;-3.754;2024-03-02T05:22:30;9.93;;;2.20;;
19782;SDS011;10051;40.294;-3.754;2024-03-02T05:24:56;9.65;;;2.08;;
19782;SDS011;10051;40.294;-3.754;2024-03-02T05:27:21;11.82;;;2.40;;
19782;SDS011;10051;40.294;-3.754;2024-03-02T05:29:47;7.15;;;2.20;;
19782;SDS011;10051;40.294;-3.754;2024-03-02T05:32:13;14.80;;;2.47;;
19782;SDS011;10051;40.294;-3.754;2024-03-02T05:34:38;11.82;;;2.08;;
19782;SDS011;10051;40.294;-3.754;2024-03-02T05:37:04;12.93;;;2.50;;
19782;SDS011;10051;40.294;-3.754;2024-03-02T05:39:29;9.90;;;2.20;;
19782;SDS011;10051;40.294;-3.754;2024-03-02T05:41:55;13.40;;;2.05;;
19782;SDS011;10051;40.294;-3.754;2024-03-02T05:44:23;8.57;;;2.10;;
19782;SDS011;10051;40.294;-3.754;2024-03-02T05:46:49;11.30;;;2.60;;
19782;SDS011;10051;40.294;-3.754;2024-03-02T05:49:14;11.98;;;2.50;;
19782;SDS011;10051;40.294;-3.754;2024-03-02T05:51:40;7.47;;;2.17;;
19782;SDS011;10051;40.294;-3.754;2024-03-02T05:54:06;13.27;;;2.40;;
19782;SDS011;10051;40.294;-3.754;2024-03-02T05:56:32;11.00;;;2.40;;
19782;SDS011;10051;40.294;-3.754;2024-03-02T05:58:58;15.73;;;2.40;;
19782;SDS011;10051;40.294;-3.754;2024-03-02T06:01:42;13.70;;;2.65;;
19782;SDS011;10051;40.294;-3.754;2024-03-02T06:04:09;9.88;;;2.28;;
19782;SDS011;10051;40.294;-3.754;2024-03-02T06:06:36;11.70;;;2.20;;
19782;SDS011;10051;40.294;-3.754;2024-03-02T06:09:02;11.73;;;2.30;;
19782;SDS011;10051;40.294;-3.754;2024-03-02T06:11:38;13.25;;;2.20;;
19782;SDS011;10051;40.294;-3.754;2024-03-02T06:14:05;13.32;;;2.58;;
19782;SDS011;10051;40.294;-3.754;2024-03-02T06:16:32;12.27;;;2.25;;
19782;SDS011;10051;40.294;-3.754;2024-03-02T06:18:58;17.00;;;2.78;;
19782;SDS011;10051;40.294;-3.754;2024-03-02T06:21:23;11.35;;;2.65;;
19782;SDS011;10051;40.294;-3.754;2024-03-02T06:23:49;16.55;;;2.60;;
19782;SDS011;10051;40.294;-3.754;2024-03-02T06:26:15;9.68;;;2.40;;
19782;SDS011;10051;40.294;-3.754;2024-03-02T06:28:41;10.20;;;2.20;;
19782;SDS011;10051;40.294;-3.754;2024-03-02T06:31:06;16.05;;;2.63;;
19782;SDS011;10051;40.294;-3.754;2024-03-02T06:33:32;15.15;;;2.53;;
19782;SDS011;10051;40.294;-3.754;2024-03-02T06:35:57;12.40;;;2.60;;
19782;SDS011;10051;40.294;-3.754;2024-03-02T06:38:23;11.68;;;2.20;;
19782;SDS011;10051;40.294;-3.754;2024-03-02T06:40:49;15.50;;;2.72;;
19782;SDS011;10051;40.294;-3.754;2024-03-02T06:43:14;13.00;;;2.40;;
19782;SDS011;10051;40.294;-3.754;2024-03-02T06:45:40;13.63;;;2.50;;
19782;SDS011;10051;40.294;-3.754;2024-03-02T06:48:06;12.75;;;2.67;;
19782;SDS011;10051;40.294;-3.754;2024-03-02T06:50:32;12.60;;;2.40;;
19782;SDS011;10051;40.294;-3.754;2024-03-02T06:52:57;17.20;;;2.50;;
19782;SDS011;10051;40.294;-3.754;2024-03-02T06:55:23;18.83;;;2.72;;
19782;SDS011;10051;40.294;-3.754;2024-03-02T06:57:49;15.70;;;2.63;;
19782;SDS011;10051;40.294;-3.754;2024-03-02T07:00:15;14.20;;;2.35;;
19782;SDS011;10051;40.294;-3.754;2024-03-02T07:02:42;13.32;;;2.33;;
19782;SDS011;10051;40.294;-3.754;2024-03-02T07:05:09;13.98;;;2.45;;
19782;SDS011;10051;40.294;-3.754;2024-03-02T07:07:35;12.52;;;2.10;;
19782;SDS011;10051;40.294;-3.754;2024-03-02T07:10:01;14.55;;;2.60;;
19782;SDS011;10051;40.294;-3.754;2024-03-02T07:12:28;14.40;;;2.40;;
19782;SDS011;10051;40.294;-3.754;2024-03-02T07:14:53;14.55;;;2.38;;
19782;SDS011;10051;40.294;-3.754;2024-03-02T07:17:39;13.60;;;2.47;;
19782;SDS011;10051;40.294;-3.754;2024-03-02T07:20:05;11.30;;;2.22;;
19782;SDS011;10051;40.294;-3.754;2024-03-02T07:22:31;16.60;;;2.53;;
19782;SDS011;10051;40.294;-3.754;2024-03-02T07:24:58;12.75;;;2.10;;
19782;SDS011;10051;40.294;-3.754;2024-03-02T07:27:23;13.20;;;2.40;;
19782;SDS011;10051;40.294;-3.754;2024-03-02T07:29:49;10.35;;;2.30;;
19782;SDS011;10051;40.294;-3.754;2024-03-02T07:32:14;11.77;;;2.42;;
19782;SDS011;10051;40.294;-3.754;2024-03-02T07:34:40;11.98;;;2.30;;
19782;SDS011;10051;40.294;-3.754;2024-03-02T07:37:05;10.90;;;2.20;;
19782;SDS011;10051;40.294;-3.754;2024-03-02T07:39:31;9.80;;;2.10;;
19782;SDS011;10051;40.294;-3.754;2024-03-02T07:41:57;13.75;;;2.45;;
19782;SDS011;10051;40.294;-3.754;2024-03-02T07:44:23;11.05;;;2.17;;
19782;SDS011;10051;40.294;-3.754;2024-03-02T07:46:48;12.40;;;2.42;;
19782;SDS011;10051;40.294;-3.754;2024-03-02T07:49:17;11.50;;;2.17;;
19782;SDS011;10051;40.294;-3.754;2024-03-02T07:51:44;13.40;;;2.40;;
19782;SDS011;10051;40.294;-3.754;2024-03-02T07:54:10;15.10;;;2.40;;
19782;SDS011;10051;40.294;-3.754;2024-03-02T07:56:36;16.98;;;2.50;;
19782;SDS011;10051;40.294;-3.754;2024-03-02T07:59:02;16.17;;;2.78;;
19782;SDS011;10051;40.294;-3.754;2024-03-02T08:01:29;15.60;;;2.33;;
19782;SDS011;10051;40.294;-3.754;2024-03-02T08:03:56;16.13;;;2.40;;
19782;SDS011;10051;40.294;-3.754;2024-03-02T08:06:24;14.27;;;2.42;;
19782;SDS011;10051;40.294;-3.754;2024-03-02T08:08:53;12.48;;;2.35;;
19782;SDS011;10051;40.294;-3.754;2024-03-02T08:11:19;17.67;;;2.65;;
19782;SDS011;10051;40.294;-3.754;2024-03-02T08:13:45;13.38;;;2.45;;
19782;SDS011;10051;40.294;-3.754;2024-03-02T08:16:11;12.77;;;2.22;;
19782;SDS011;10051;40.294;-3.754;2024-03-02T08:18:36;16.92;;;2.65;;
19782;SDS011;10051;40.294;-3.754;2024-03-02T08:21:02;12.77;;;2.50;;
19782;SDS011;10051;40.294;-3.754;2024-03-02T08:23:28;16.55;;;2.60;;
19782;SDS011;10051;40.294;-3.754;2024-03-02T08:25:54;13.85;;;2.35;;
19782;SDS011;10051;40.294;-3.754;2024-03-02T08:28:19;12.50;;;2.50;;
19782;SDS011;10051;40.294;-3.754;2024-03-02T08:30:45;16.10;;;2.42;;
19782;SDS011;10051;40.294;-3.754;2024-03-02T08:33:10;7.57;;;2.10;;
19782;SDS011;10051;40.294;-3.754;2024-03-02T08:35:36;11.85;;;3.35;;
19782;SDS011;10051;40.294;-3.754;2024-03-02T08:38:02;16.40;;;3.60;;
19782;SDS011;10051;40.294;-3.754;2024-03-02T08:40:29;11.23;;;3.30;;
19782;SDS011;10051;40.294;-3.754;2024-03-02T08:42:55;13.95;;;3.80;;
19782;SDS011;10051;40.294;-3.754;2024-03-02T08:45:20;13.38;;;4.13;;
19782;SDS011;10051;40.294;-3.754;2024-03-02T08:47:46;10.77;;;3.55;;
19782;SDS011;10051;40.294;-3.754;2024-03-02T08:50:13;11.32;;;3.20;;
19782;SDS011;10051;40.294;-3.754;2024-03-02T08:52:38;14.60;;;2.78;;
19782;SDS011;10051;40.294;-3.754;2024-03-02T08:55:04;13.68;;;2.90;;
19782;SDS011;10051;40.294;-3.754;2024-03-02T08:57:31;8.85;;;2.25;;
19782;SDS011;10051;40.294;-3.754;2024-03-02T08:59:56;13.63;;;2.58;;
19782;SDS011;10051;40.294;-3.754;2024-03-02T09:02:22;6.47;;;2.35;;
19782;SDS011;10051;40.294;-3.754;2024-03-02T09:04:48;9.98;;;2.90;;
19782;SDS011;10051;40.294;-3.754;2024-03-02T09:07:14;9.27;;;2.50;;
19782;SDS011;10051;40.294;-3.754;2024-03-02T09:09:40;8.48;;;2.38;;
19782;SDS011;10051;40.294;-3.754;2024-03-02T09:12:06;10.27;;;2.60;;
19782;SDS011;10051;40.294;-3.754;2024-03-02T09:14:32;9.23;;;2.60;;
19782;SDS011;10051;40.294;-3.754;2024-03-02T09:16:58;10.75;;;2.50;;
19782;SDS011;10051;40.294;-3.754;2024-03-02T09:19:24;11.35;;;2.45;;
19782;SDS011;10051;40.294;-3.754;2024-03-02T09:21:50;9.50;;;2.22;;
19782;SDS011;10051;40.294;-3.754;2024-03-02T09:24:15;9.50;;;2.55;;
19782;SDS011;10051;40.294;-3.754;2024-03-02T09:26:41;7.63;;;2.42;;
19782;SDS011;10051;40.294;-3.754;2024-03-02T09:29:06;11.73;;;3.20;;
19782;SDS011;10051;40.294;-3.754;2024-03-02T09:31:32;11.20;;;2.63;;
19782;SDS011;10051;40.294;-3.754;2024-03-02T09:33:57;11.90;;;2.90;;
19782;SDS011;10051;40.294;-3.754;2024-03-02T09:36:23;13.63;;;2.50;;
19782;SDS011;10051;40.294;-3.754;2024-03-02T09:38:48;8.55;;;2.80;;
19782;SDS011;10051;40.294;-3.754;2024-03-02T09:41:14;9.77;;;3.03;;
19782;SDS011;10051;40.294;-3.754;2024-03-02T09:43:40;12.98;;;3.42;;
19782;SDS011;10051;40.294;-3.754;2024-03-02T09:46:09;8.00;;;2.60;;
19782;SDS011;10051;40.294;-3.754;2024-03-02T09:48:35;12.95;;;2.80;;
19782;SDS011;10051;40.294;-3.754;2024-03-02T09:51:01;14.77;;;2.92;;
19782;SDS011;10051;40.294;-3.754;2024-03-02T09:53:32;12.18;;;2.30;;
19782;SDS011;10051;40.294;-3.754;2024-03-02T09:55:59;7.85;;;2.38;;
19782;SDS011;10051;40.294;-3.754;2024-03-02T09:58:25;8.95;;;2.63;;
19782;SDS011;10051;40.294;-3.754;2024-03-02T10:00:51;12.23;;;2.83;;
19782;SDS011;10051;40.294;-3.754;2024-03-02T10:03:18;7.90;;;2.60;;
19782;SDS011;10051;40.294;-3.754;2024-03-02T10:05:44;13.10;;;2.92;;
19782;SDS011;10051;40.294;-3.754;2024-03-02T10:08:10;8.77;;;2.70;;
19782;SDS011;10051;40.294;-3.754;2024-03-02T10:10:36;9.73;;;2.55;;
19782;SDS011;10051;40.294;-3.754;2024-03-02T10:13:06;8.73;;;2.67;;
19782;SDS011;10051;40.294;-3.754;2024-03-02T10:15:32;10.07;;;2.60;;
19782;SDS011;10051;40.294;-3.754;2024-03-02T10:17:58;11.13;;;3.00;;
19782;SDS011;10051;40.294;-3.754;2024-03-02T10:20:27;9.65;;;2.83;;
19782;SDS011;10051;40.294;-3.754;2024-03-02T10:23:13;9.23;;;2.05;;
19782;SDS011;10051;40.294;-3.754;2024-03-02T10:25:41;14.48;;;2.50;;
19782;SDS011;10051;40.294;-3.754;2024-03-02T10:28:07;14.02;;;2.00;;
19782;SDS011;10051;40.294;-3.754;2024-03-02T10:30:33;9.13;;;2.15;;
19782;SDS011;10051;40.294;-3.754;2024-03-02T10:33:02;14.20;;;2.40;;
19782;SDS011;10051;40.294;-3.754;2024-03-02T10:35:28;6.38;;;1.70;;
19782;SDS011;10051;40.294;-3.754;2024-03-02T10:37:58;7.70;;;1.75;;
19782;SDS011;10051;40.294;-3.754;2024-03-02T10:40:25;9.20;;;1.70;;
19782;SDS011;10051;40.294;-3.754;2024-03-02T10:42:52;10.55;;;2.22;;
19782;SDS011;10051;40.294;-3.754;2024-03-02T10:45:19;9.63;;;2.30;;
19782;SDS011;10051;40.294;-3.754;2024-03-02T10:47:47;12.38;;;2.90;;
19782;SDS011;10051;40.294;-3.754;2024-03-02T10:50:14;13.25;;;3.20;;
19782;SDS011;10051;40.294;-3.754;2024-03-02T10:52:40;13.35;;;3.20;;
19782;SDS011;10051;40.294;-3.754;2024-03-02T10:55:06;12.88;;;3.63;;
19782;SDS011;10051;40.294;-3.754;2024-03-02T11:00:19;13.45;;;3.45;;
19782;SDS011;10051;40.294;-3.754;2024-03-02T11:03:11;13.13;;;4.18;;
19782;SDS011;10051;40.294;-3.754;2024-03-02T11:05:36;11.55;;;3.33;;
19782;SDS011;10051;40.294;-3.754;2024-03-02T11:08:08;10.48;;;3.60;;
19782;SDS011;10051;40.294;-3.754;2024-03-02T11:10:41;8.43;;;2.83;;
19782;SDS011;10051;40.294;-3.754;2024-03-02T11:13:13;9.18;;;2.75;;
19782;SDS011;10051;40.294;-3.754;2024-03-02T11:15:45;12.73;;;3.95;;
19782;SDS011;10051;40.294;-3.754;2024-03-02T11:18:11;11.32;;;4.57;;
19782;SDS011;10051;40.294;-3.754;2024-03-02T11:20:38;16.38;;;5.68;;
19782;SDS011;10051;40.294;-3.754;2024-03-02T11:23:06;19.17;;;6.47;;
19782;SDS011;10051;40.294;-3.754;2024-03-02T11:25:32;14.35;;;5.30;;
19782;SDS011;10051;40.294;-3.754;2024-03-02T11:28:05;14.13;;;4.93;;
19782;SDS011;10051;40.294;-3.754;2024-03-02T11:32:57;11.93;;;4.53;;
19782;SDS011;10051;40.294;-3.754;2024-03-02T11:35:32;10.63;;;3.90;;
19782;SDS011;10051;40.294;-3.754;2024-03-02T11:37:58;13.15;;;3.63;;
19782;SDS011;10051;40.294;-3.754;2024-03-02T11:40:24;14.13;;;3.22;;
19782;SDS011;10051;40.294;-3.754;2024-03-02T11:42:50;8.55;;;2.40;;
19782;SDS011;10051;40.294;-3.754;2024-03-02T11:45:17;8.32;;;2.47;;
19782;SDS011;10051;40.294;-3.754;2024-03-02T11:47:50;11.82;;;2.72;;
19782;SDS011;10051;40.294;-3.754;2024-03-02T11:50:28;10.07;;;2.15;;
19782;SDS011;10051;40.294;-3.754;2024-03-02T11:53:03;8.93;;;2.50;;
19782;SDS011;10051;40.294;-3.754;2024-03-02T11:55:36;8.23;;;2.42;;
19782;SDS011;10051;40.294;-3.754;2024-03-02T11:58:03;4.65;;;1.98;;
19782;SDS011;10051;40.294;-3.754;2024-03-02T12:00:29;9.25;;;2.53;;
19782;SDS011;10051;40.294;-3.754;2024-03-02T12:03:05;7.65;;;2.10;;
19782;SDS011;10051;40.294;-3.754;2024-03-02T12:05:32;4.72;;;1.85;;
19782;SDS011;10051;40.294;-3.754;2024-03-02T12:08:02;6.05;;;1.80;;
19782;SDS011;10051;40.294;-3.754;2024-03-02T12:10:29;6.65;;;1.77;;
19782;SDS011;10051;40.294;-3.754;2024-03-02T12:13:02;5.13;;;1.80;;
19782;SDS011;10051;40.294;-3.754;2024-03-02T12:15:32;5.43;;;1.55;;
19782;SDS011;10051;40.294;-3.754;2024-03-02T12:18:00;8.55;;;2.28;;
19782;SDS011;10051;40.294;-3.754;2024-03-02T12:20:27;6.45;;;1.85;;
19782;SDS011;10051;40.294;-3.754;2024-03-02T12:22:55;6.97;;;1.58;;
19782;SDS011;10051;40.294;-3.754;2024-03-02T12:25:22;4.18;;;1.65;;
19782;SDS011;10051;40.294;-3.754;2024-03-02T12:27:50;4.70;;;1.60;;
19782;SDS011;10051;40.294;-3.754;2024-03-02T12:30:17;4.28;;;1.60;;
19782;SDS011;10051;40.294;-3.754;2024-03-02T12:32:44;7.97;;;2.00;;
19782;SDS011;10051;40.294;-3.754;2024-03-02T12:35:15;8.45;;;1.90;;
19782;SDS011;10051;40.294;-3.754;2024-03-02T12:37:44;4.45;;;1.20;;
19782;SDS011;10051;40.294;-3.754;2024-03-02T12:40:11;3.28;;;1.30;;
19782;SDS011;10051;40.294;-3.754;2024-03-02T12:42:38;4.13;;;1.20;;
19782;SDS011;10051;40.294;-3.754;2024-03-02T12:45:04;3.95;;;1.50;;
19782;SDS011;10051;40.294;-3.754;2024-03-02T12:47:31;4.97;;;1.40;;
19782;SDS011;10051;40.294;-3.754;2024-03-02T12:49:58;3.63;;;1.20;;
19782;SDS011;10051;40.294;-3.754;2024-03-02T12:52:24;5.68;;;1.40;;
19782;SDS011;10051;40.294;-3.754;2024-03-02T12:54:50;4.35;;;1.58;;
19782;SDS011;10051;40.294;-3.754;2024-03-02T12:57:19;5.78;;;1.40;;
19782;SDS011;10051;40.294;-3.754;2024-03-02T12:59:45;2.80;;;1.40;;
19782;SDS011;10051;40.294;-3.754;2024-03-02T13:02:16;3.88;;;1.80;;
19782;SDS011;10051;40.294;-3.754;2024-03-02T13:04:43;7.72;;;1.52;;
19782;SDS011;10051;40.294;-3.754;2024-03-02T13:07:08;4.57;;;1.20;;
19782;SDS011;10051;40.294;-3.754;2024-03-02T13:09:35;4.05;;;1.33;;
19782;SDS011;10051;40.294;-3.754;2024-03-02T13:12:02;3.10;;;1.40;;
19782;SDS011;10051;40.294;-3.754;2024-03-02T13:14:31;3.75;;;1.50;;
19782;SDS011;10051;40.294;-3.754;2024-03-02T13:16:58;2.95;;;1.33;;
19782;SDS011;10051;40.294;-3.754;2024-03-02T13:19:25;3.47;;;1.67;;
19782;SDS011;10051;40.294;-3.754;2024-03-02T13:21:50;7.88;;;2.00;;
19782;SDS011;10051;40.294;-3.754;2024-03-02T13:24:16;7.70;;;2.00;;
19782;SDS011;10051;40.294;-3.754;2024-03-02T13:26:41;10.05;;;2.35;;
19782;SDS011;10051;40.294;-3.754;2024-03-02T13:29:08;8.25;;;2.30;;
19782;SDS011;10051;40.294;-3.754;2024-03-02T13:31:34;10.05;;;2.85;;
19782;SDS011;10051;40.294;-3.754;2024-03-02T13:33:59;11.93;;;3.00;;
19782;SDS011;10051;40.294;-3.754;2024-03-02T13:36:25;8.05;;;2.08;;
19782;SDS011;10051;40.294;-3.754;2024-03-02T13:38:51;9.30;;;2.20;;
19782;SDS011;10051;40.294;-3.754;2024-03-02T13:41:16;10.75;;;2.60;;
19782;SDS011;10051;40.294;-3.754;2024-03-02T13:43:42;6.40;;;2.22;;
19782;SDS011;10051;40.294;-3.754;2024-03-02T13:46:10;8.57;;;2.03;;
19782;SDS011;10051;40.294;-3.754;2024-03-02T13:48:35;8.57;;;2.00;;
19782;SDS011;10051;40.294;-3.754;2024-03-02T13:51:01;8.70;;;2.10;;
19782;SDS011;10051;40.294;-3.754;2024-03-02T13:53:27;5.22;;;1.80;;
19782;SDS011;10051;40.294;-3.754;2024-03-02T13:55:53;6.43;;;1.95;;
19782;SDS011;10051;40.294;-3.754;2024-03-02T13:58:19;6.55;;;1.73;;
19782;SDS011;10051;40.294;-3.754;2024-03-02T14:00:45;8.18;;;2.00;;
19782;SDS011;10051;40.294;-3.754;2024-03-02T14:03:12;8.90;;;2.28;;
19782;SDS011;10051;40.294;-3.754;2024-03-02T14:05:37;9.23;;;2.30;;
19782;SDS011;10051;40.294;-3.754;2024-03-02T14:08:03;11.02;;;2.55;;
19782;SDS011;10051;40.294;-3.754;2024-03-02T14:10:29;8.50;;;2.65;;
19782;SDS011;10051;40.294;-3.754;2024-03-02T14:12:55;9.05;;;2.78;;
19782;SDS011;10051;40.294;-3.754;2024-03-02T14:15:21;8.68;;;1.88;;
19782;SDS011;10051;40.294;-3.754;2024-03-02T14:17:47;8.93;;;1.88;;
19782;SDS011;10051;40.294;-3.754;2024-03-02T14:20:12;8.65;;;1.70;;
19782;SDS011;10051;40.294;-3.754;2024-03-02T14:22:39;6.70;;;1.80;;
19782;SDS011;10051;40.294;-3.754;2024-03-02T14:25:05;6.10;;;1.42;;
19782;SDS011;10051;40.294;-3.754;2024-03-02T14:27:31;7.60;;;1.60;;
19782;SDS011;10051;40.294;-3.754;2024-03-02T14:29:57;9.73;;;1.70;;
19782;SDS011;10051;40.294;-3.754;2024-03-02T14:32:22;7.72;;;1.80;;
19782;SDS011;10051;40.294;-3.754;2024-03-02T14:34:48;6.65;;;1.48;;
19782;SDS011;10051;40.294;-3.754;2024-03-02T14:37:14;6.88;;;2.08;;